Time;durP1;ratioP1;P1;durP2;ratioP2;P2;SDS_P1;SDS_P2;PMS_P1;PMS_P2;Temp;Humidity;BMP_temperature;BMP_pressure;BME280_temperature;BME280_humidity;BME280_pressure;Samples;Min_cycle;Max_cycle;Signal;HPM_P1;HPM_P2
2023/08/20 00:00:52;;;;;;;8.63;2.90;;;;;;;18.06;100.00;101872.72;4941645;28;20070;-87
2023/08/20 00:03:18;;;;;;;7.72;2.80;;;;;;;18.03;100.00;101871.28;4957767;28;20045;-86
2023/08/20 00:05:44;;;;;;;8.97;3.07;;;;;;;18.03;100.00;101881.44;4974950;28;20130;-87
2023/08/20 00:08:09;;;;;;;9.35;3.30;;;;;;;17.96;100.00;101873.31;4974663;28;20437;-87
2023/08/20 00:10:34;;;;;;;8.53;2.80;;;;;;;17.95;100.00;101873.56;4926221;28;20042;-87
2023/08/20 00:13:00;;;;;;;10.23;3.00;;;;;;;17.91;100.00;101875.97;4957577;28;20038;-87
2023/08/20 00:15:28;;;;;;;9.80;2.90;;;;;;;17.91;100.00;101869.59;4957895;28;20031;-87
2023/08/20 00:17:57;;;;;;;12.68;3.50;;;;;;;17.81;100.00;101857.28;4958034;28;20448;-87
2023/08/20 00:20:23;;;;;;;11.23;3.43;;;;;;;17.80;100.00;101858.38;4974829;28;20039;-87
2023/08/20 00:22:49;;;;;;;10.55;4.28;;;;;;;17.75;100.00;101857.44;4974854;28;20039;-87
2023/08/20 00:25:17;;;;;;;8.10;3.28;;;;;;;17.67;100.00;101862.19;4974444;28;20043;-87
2023/08/20 00:27:43;;;;;;;10.27;3.35;;;;;;;17.58;100.00;101869.09;4974791;28;20034;-87
2023/08/20 00:30:09;;;;;;;5.53;2.60;;;;;;;17.56;100.00;101868.50;4957658;28;20034;-87
2023/08/20 00:32:35;;;;;;;14.13;2.95;;;;;;;17.49;100.00;101873.28;4974632;28;20035;-87
2023/08/20 00:35:02;;;;;;;9.23;2.92;;;;;;;17.49;100.00;101879.63;4978641;28;20035;-87
2023/08/20 00:37:28;;;;;;;10.07;3.05;;;;;;;17.53;100.00;101879.97;4978705;28;20030;-87
2023/08/20 00:39:54;;;;;;;8.43;2.90;;;;;;;17.57;100.00;101885.81;4978422;28;20395;-87
2023/08/20 00:42:19;;;;;;;6.70;2.50;;;;;;;17.59;100.00;101891.91;4930240;28;20033;-87
2023/08/20 00:44:45;;;;;;;9.20;2.80;;;;;;;17.65;100.00;101899.19;4961244;28;20045;-87
2023/08/20 00:47:11;;;;;;;8.13;2.78;;;;;;;17.61;100.00;101901.56;4960685;28;20058;-87
2023/08/20 00:49:37;;;;;;;7.53;3.23;;;;;;;17.64;100.00;101909.34;4961140;28;20058;-87
2023/08/20 00:52:03;;;;;;;8.57;3.70;;;;;;;17.65;100.00;101910.16;4961086;28;20109;-87
2023/08/20 00:54:31;;;;;;;8.43;2.70;;;;;;;17.60;100.00;101904.53;4960905;28;20133;-87
2023/08/20 00:56:59;;;;;;;9.30;3.00;;;;;;;17.62;100.00;101911.47;4960576;28;20027;-88
2023/08/20 00:59:28;;;;;;;8.75;2.72;;;;;;;17.64;100.00;101917.56;4978253;28;20039;-87
2023/08/20 01:01:54;;;;;;;9.35;2.90;;;;;;;17.69;100.00;101916.84;4960845;28;20463;-88
2023/08/20 01:04:19;;;;;;;6.57;2.90;;;;;;;17.76;100.00;101923.06;4960544;28;20150;-87
2023/08/20 01:07:12;;;;;;;12.00;2.90;;;;;;;17.89;100.00;101941.19;4960752;28;20041;-87
2023/08/20 01:09:47;;;;;;;7.30;2.57;;;;;;;17.92;100.00;101940.75;4960780;28;20026;-87
2023/08/20 01:12:13;;;;;;;8.80;2.42;;;;;;;17.97;100.00;101946.38;4960890;28;20188;-87
2023/08/20 01:14:39;;;;;;;8.07;2.50;;;;;;;18.02;100.00;101946.47;4944831;28;20126;-87
2023/08/20 01:17:07;;;;;;;8.65;2.70;;;;;;;18.08;100.00;101943.88;4977912;28;20039;-87
2023/08/20 01:19:33;;;;;;;8.82;2.60;;;;;;;18.14;100.00;101949.22;4960575;28;20031;-87
2023/08/20 01:22:14;;;;;;;6.50;2.77;;;;;;;18.16;100.00;101936.09;4961001;28;20030;-87
2023/08/20 01:24:54;;;;;;;8.15;2.45;;;;;;;18.21;100.00;101936.22;4977816;28;20046;-87
2023/08/20 01:27:45;;;;;;;7.95;2.72;;;;;;;18.29;100.00;101937.78;4960329;28;20054;-87
2023/08/20 01:30:11;;;;;;;7.93;2.72;;;;;;;18.33;100.00;101936.19;4977778;28;20023;-87
2023/08/20 01:32:37;;;;;;;6.70;2.60;;;;;;;18.38;100.00;101932.72;4944347;28;20034;-87
2023/08/20 01:35:03;;;;;;;6.43;2.67;;;;;;;18.39;100.00;101938.00;4960237;28;20468;-87
2023/08/20 01:37:28;;;;;;;7.03;2.78;;;;;;;18.40;100.00;101934.16;4960173;28;20061;-88
2023/08/20 01:39:53;;;;;;;6.50;2.40;;;;;;;18.45;100.00;101936.16;4960257;28;20035;-88
2023/08/20 01:42:19;;;;;;;8.17;2.67;;;;;;;18.48;100.00;101934.84;4960816;28;20077;-87
2023/08/20 01:44:44;;;;;;;11.85;2.83;;;;;;;18.44;100.00;101937.28;4928012;28;20039;-88
2023/08/20 01:47:10;;;;;;;6.60;2.43;;;;;;;18.46;100.00;101937.84;4927693;28;20062;-87
2023/08/20 01:49:35;;;;;;;8.13;2.40;;;;;;;18.53;100.00;101941.31;4960183;28;20039;-88
2023/08/20 01:52:00;;;;;;;9.70;2.67;;;;;;;18.57;100.00;101931.50;4960117;28;20038;-88
2023/08/20 01:54:26;;;;;;;7.65;2.90;;;;;;;18.62;100.00;101935.44;4959815;28;20479;-88
2023/08/20 01:56:51;;;;;;;10.53;2.87;;;;;;;18.65;100.00;101944.03;4959465;28;20035;-88
2023/08/20 01:59:18;;;;;;;6.80;2.60;;;;;;;18.70;100.00;101946.88;4959711;28;20068;-88
2023/08/20 02:01:43;;;;;;;8.45;2.20;;;;;;;18.72;100.00;101952.13;4959727;28;20035;-88
2023/08/20 02:04:09;;;;;;;9.50;2.67;;;;;;;18.74;100.00;101956.31;4977108;28;20022;-87
2023/08/20 02:06:34;;;;;;;8.60;2.20;;;;;;;18.72;100.00;101954.88;4959903;28;20035;-87
2023/08/20 02:09:00;;;;;;;8.65;2.60;;;;;;;18.74;100.00;101961.78;4943895;28;20431;-87
2023/08/20 02:11:32;;;;;;;7.00;2.27;;;;;;;18.77;100.00;101957.72;4959561;28;20546;-87
2023/08/20 02:13:58;;;;;;;8.77;2.83;;;;;;;18.81;100.00;101963.56;4977250;28;20041;-87
2023/08/20 02:16:23;;;;;;;7.17;2.37;;;;;;;18.81;100.00;101960.81;4959501;28;20126;-87
2023/08/20 02:18:49;;;;;;;11.47;2.47;;;;;;;18.84;100.00;101963.94;4959493;28;20027;-87
2023/08/20 02:21:14;;;;;;;7.40;2.47;;;;;;;18.83;100.00;101975.19;4943436;28;20053;-88
2023/08/20 02:23:40;;;;;;;5.68;2.60;;;;;;;18.83;100.00;101969.69;4943456;28;20434;-86
2023/08/20 02:26:05;;;;;;;5.57;2.27;;;;;;;18.80;100.00;101973.75;4959222;28;20038;-87
2023/08/20 02:28:30;;;;;;;8.00;2.50;;;;;;;18.84;100.00;101971.31;4959659;28;20399;-87
2023/08/20 02:30:57;;;;;;;9.87;2.43;;;;;;;18.74;100.00;101964.53;4959030;28;20478;-87
2023/08/20 02:33:23;;;;;;;8.10;2.42;;;;;;;18.75;100.00;101966.22;4959278;28;20019;-87
2023/08/20 02:35:48;;;;;;;6.73;2.87;;;;;;;18.74;100.00;101963.72;4976546;28;20451;-87
2023/08/20 02:38:15;;;;;;;9.05;2.58;;;;;;;18.69;100.00;101953.47;4943441;28;20030;-87
2023/08/20 02:40:43;;;;;;;7.37;2.50;;;;;;;18.64;100.00;101963.50;4959205;28;20031;-87
2023/08/20 02:43:09;;;;;;;10.05;2.70;;;;;;;18.59;100.00;101962.31;4976678;28;20128;-87
2023/08/20 02:45:41;;;;;;;8.40;2.35;;;;;;;18.51;100.00;101959.97;4976292;28;20483;-87
2023/08/20 02:48:06;;;;;;;8.10;2.47;;;;;;;18.43;100.00;101963.06;4976382;28;20035;-87
2023/08/20 02:50:32;;;;;;;7.53;2.70;;;;;;;18.29;100.00;101951.50;4958864;28;20034;-86
2023/08/20 02:52:57;;;;;;;6.23;2.40;;;;;;;18.22;100.00;101945.31;4976162;28;20034;-87
2023/08/20 02:55:22;;;;;;;6.23;2.80;;;;;;;18.16;100.00;101957.22;4926981;28;20043;-87
2023/08/20 02:57:48;;;;;;;7.40;2.43;;;;;;;18.09;100.00;101951.88;4958970;28;20372;-87
2023/08/20 03:00:13;;;;;;;4.82;2.28;;;;;;;18.04;100.00;101949.00;4942931;28;20031;-87
2023/08/20 03:02:41;;;;;;;5.23;2.53;;;;;;;17.95;100.00;101943.03;4958916;28;20058;-87
2023/08/20 03:05:10;;;;;;;6.85;2.75;;;;;;;17.90;100.00;101948.41;4975589;28;20562;-87
2023/08/20 03:07:35;;;;;;;9.73;3.00;;;;;;;17.84;100.00;101949.31;4958788;28;20133;-86
2023/08/20 03:10:02;;;;;;;7.57;2.77;;;;;;;17.76;100.00;101946.91;4975906;28;20428;-87
2023/08/20 03:12:28;;;;;;;6.18;3.00;;;;;;;17.70;100.00;101948.69;4975934;28;20122;-87
2023/08/20 03:14:55;;;;;;;9.67;2.50;;;;;;;17.62;100.00;101941.66;4976063;28;20067;-87
2023/08/20 03:17:21;;;;;;;11.23;3.00;;;;;;;17.53;100.00;101945.81;4942758;28;20476;-87
2023/08/20 03:19:58;;;;;;;8.47;2.77;;;;;;;17.47;100.00;101942.09;4942286;28;20097;-87
2023/08/20 03:22:25;;;;;;;6.75;2.45;;;;;;;17.39;100.00;101944.34;4958537;28;20503;-87
2023/08/20 03:24:51;;;;;;;8.63;3.20;;;;;;;17.33;100.00;101952.44;4975615;28;20120;-87
2023/08/20 03:27:20;;;;;;;7.97;2.80;;;;;;;17.29;100.00;101945.75;4957790;28;20042;-87
2023/08/20 03:29:46;;;;;;;6.18;2.72;;;;;;;17.26;100.00;101946.22;4958697;28;20070;-87
2023/08/20 03:32:12;;;;;;;9.98;2.92;;;;;;;17.18;100.00;101952.88;4958883;28;20367;-87
2023/08/20 03:34:37;;;;;;;6.10;2.90;;;;;;;17.12;100.00;101945.56;4941912;28;20084;-87
2023/08/20 03:37:03;;;;;;;9.27;3.22;;;;;;;17.07;100.00;101950.91;4958092;28;20126;-87
2023/08/20 03:39:32;;;;;;;11.52;2.97;;;;;;;16.99;100.00;101937.53;4975410;28;20038;-87
2023/08/20 03:41:57;;;;;;;5.25;2.95;;;;;;;16.95;100.00;101941.81;4958325;28;20039;-87
2023/08/20 03:44:23;;;;;;;11.17;3.40;;;;;;;16.90;100.00;101941.66;4975082;28;20384;-87
2023/08/20 03:46:49;;;;;;;6.97;2.97;;;;;;;16.78;100.00;101942.41;4940343;28;20098;-87
2023/08/20 03:49:14;;;;;;;7.03;3.60;;;;;;;16.74;100.00;101935.72;4957702;28;20105;-87
2023/08/20 03:51:42;;;;;;;8.87;3.27;;;;;;;16.71;100.00;101947.16;4941911;28;20466;-87
2023/08/20 03:54:08;;;;;;;5.85;3.30;;;;;;;16.70;100.00;101959.19;4957766;28;20066;-88
2023/08/20 03:56:33;;;;;;;10.02;3.33;;;;;;;16.66;100.00;101958.78;4974493;28;20035;-87
2023/08/20 03:58:59;;;;;;;12.27;3.47;;;;;;;16.64;100.00;101965.56;4957800;28;20554;-87
2023/08/20 04:01:24;;;;;;;5.10;3.23;;;;;;;16.61;100.00;101966.88;4974824;28;20035;-87
2023/08/20 04:03:50;;;;;;;8.88;3.22;;;;;;;16.57;100.00;101956.59;4957938;28;20049;-87
2023/08/20 04:06:15;;;;;;;8.13;3.43;;;;;;;16.55;100.00;101967.78;4957740;28;20419;-87
2023/08/20 04:08:41;;;;;;;7.83;3.57;;;;;;;16.52;100.00;101964.66;4975432;28;20432;-87
2023/08/20 04:11:06;;;;;;;6.53;3.70;;;;;;;16.49;100.00;101979.66;4941711;28;20031;-87
2023/08/20 04:13:32;;;;;;;7.10;3.50;;;;;;;16.48;100.00;101981.53;4975228;28;20483;-87
2023/08/20 04:15:58;;;;;;;7.70;3.67;;;;;;;16.40;100.00;101976.38;4957826;28;20030;-87
2023/08/20 04:18:23;;;;;;;8.53;3.77;;;;;;;16.34;100.00;101968.22;4925834;28;20035;-87
2023/08/20 04:20:53;;;;;;;8.23;3.87;;;;;;;16.29;100.00;101982.59;4957814;28;20042;-87
2023/08/20 04:23:21;;;;;;;8.15;3.78;;;;;;;16.30;100.00;101990.56;4941586;28;20086;-87
2023/08/20 04:25:47;;;;;;;9.75;3.90;;;;;;;16.26;100.00;101983.03;4957147;28;20027;-87
2023/08/20 04:28:12;;;;;;;10.83;3.77;;;;;;;16.25;100.00;101976.72;4941911;28;20054;-87
2023/08/20 04:30:38;;;;;;;7.68;3.60;;;;;;;16.26;100.00;101983.03;4957511;28;20517;-87
2023/08/20 04:33:04;;;;;;;8.87;3.70;;;;;;;16.25;100.00;101987.66;4974802;28;20038;-87
2023/08/20 04:35:29;;;;;;;8.13;3.70;;;;;;;16.23;100.00;101983.50;4957102;28;20039;-87
2023/08/20 04:37:55;;;;;;;9.03;3.27;;;;;;;16.20;100.00;101978.47;4941319;28;20054;-87
2023/08/20 04:40:20;;;;;;;9.53;3.67;;;;;;;16.17;100.00;101985.22;4957633;28;20030;-88
2023/08/20 04:42:45;;;;;;;10.50;3.93;;;;;;;16.16;100.00;101988.19;4957181;28;20046;-88
2023/08/20 04:45:11;;;;;;;7.18;3.88;;;;;;;16.12;100.00;101983.19;4974558;28;20039;-87
2023/08/20 04:47:38;;;;;;;7.63;3.50;;;;;;;16.13;100.00;101986.75;4974295;28;20055;-87
2023/08/20 04:50:06;;;;;;;10.30;4.10;;;;;;;16.11;100.00;101978.75;4974933;28;20035;-87
2023/08/20 04:52:32;;;;;;;6.95;3.72;;;;;;;16.10;100.00;101987.19;4926130;28;20035;-87
2023/08/20 04:54:57;;;;;;;7.93;3.90;;;;;;;16.09;100.00;101994.56;4957242;28;20045;-87
2023/08/20 04:57:26;;;;;;;5.70;3.93;;;;;;;16.10;100.00;101993.50;4940992;28;20031;-87
2023/08/20 04:59:51;;;;;;;9.18;3.97;;;;;;;16.10;100.00;101985.28;4974788;28;20039;-87
2023/08/20 05:02:17;;;;;;;9.35;4.13;;;;;;;16.12;100.00;101985.06;4957221;28;20121;-87
2023/08/20 05:04:42;;;;;;;10.27;4.40;;;;;;;16.12;100.00;101985.06;4957115;28;20031;-87
2023/08/20 05:07:08;;;;;;;9.30;4.20;;;;;;;16.14;100.00;102000.19;4925188;28;20063;-87
2023/08/20 05:09:33;;;;;;;8.13;3.80;;;;;;;16.16;100.00;101996.41;4925121;28;20042;-87
2023/08/20 05:11:59;;;;;;;9.27;4.50;;;;;;;16.20;100.00;101995.72;4941890;28;20062;-87
2023/08/20 05:14:24;;;;;;;6.93;4.70;;;;;;;16.19;100.00;101996.78;4974374;28;20089;-88
2023/08/20 05:16:50;;;;;;;9.43;4.70;;;;;;;16.20;100.00;101994.91;4956998;28;20031;-87
2023/08/20 05:19:15;;;;;;;11.80;5.07;;;;;;;16.22;100.00;101999.06;4941939;28;20034;-87
2023/08/20 05:21:40;;;;;;;7.80;4.70;;;;;;;16.26;100.00;101996.75;4961097;28;20619;-87
2023/08/20 05:24:06;;;;;;;11.57;4.80;;;;;;;16.30;100.00;102004.28;4960564;28;20041;-87
2023/08/20 05:26:31;;;;;;;15.30;6.17;;;;;;;16.36;100.00;102009.91;4977574;28;20022;-87
2023/08/20 05:28:57;;;;;;;11.20;5.47;;;;;;;16.41;100.00;102010.91;4960636;28;20058;-87
2023/08/20 05:31:22;;;;;;;12.63;5.70;;;;;;;16.42;100.00;102011.75;4944906;28;20383;-87
2023/08/20 05:33:48;;;;;;;10.67;6.00;;;;;;;16.49;100.00;102021.56;4977401;28;20042;-87
2023/08/20 05:36:14;;;;;;;12.70;5.63;;;;;;;16.53;100.00;102016.47;4960520;28;20037;-87
2023/08/20 05:38:42;;;;;;;16.45;6.70;;;;;;;16.56;100.00;102020.66;4960269;28;20034;-87
2023/08/20 05:41:07;;;;;;;11.82;6.20;;;;;;;16.60;100.00;102017.22;4977297;28;20085;-87
2023/08/20 05:43:33;;;;;;;12.80;5.93;;;;;;;16.66;100.00;102018.22;4960382;28;20483;-87
2023/08/20 05:45:58;;;;;;;10.50;6.40;;;;;;;16.71;100.00;102015.66;4977162;28;20145;-87
2023/08/20 05:48:23;;;;;;;12.05;5.88;;;;;;;16.76;100.00;102014.97;4959587;28;20051;-87
2023/08/20 05:50:52;;;;;;;12.53;5.93;;;;;;;16.81;100.00;102018.69;4944117;28;20456;-87
2023/08/20 05:53:17;;;;;;;10.52;5.53;;;;;;;16.89;100.00;102016.72;4944257;28;20058;-86
2023/08/20 05:55:43;;;;;;;10.77;5.50;;;;;;;16.93;100.00;102013.31;4959556;28;20085;-86
2023/08/20 05:58:08;;;;;;;11.73;5.40;;;;;;;17.00;100.00;102021.44;4943633;28;20035;-90
2023/08/20 06:00:34;;;;;;;13.67;5.10;;;;;;;17.08;100.00;102014.81;4960059;28;20031;-87
2023/08/20 06:02:59;;;;;;;9.73;4.33;;;;;;;17.16;100.00;102020.81;4959916;28;20286;-87
2023/08/20 06:05:28;;;;;;;11.33;5.03;;;;;;;17.25;100.00;102013.09;4943049;28;20491;-88
2023/08/20 06:07:53;;;;;;;11.20;4.90;;;;;;;17.29;100.00;102016.25;4960149;28;20089;-87
2023/08/20 06:10:19;;;;;;;9.93;4.33;;;;;;;17.32;100.00;102011.13;4959360;28;20105;-87
2023/08/20 06:12:44;;;;;;;9.80;4.30;;;;;;;17.43;100.00;102006.72;4943740;28;20396;-87
2023/08/20 06:15:10;;;;;;;12.50;4.60;;;;;;;17.50;100.00;102012.97;4959660;28;20031;-87
2023/08/20 06:17:37;;;;;;;9.65;3.90;;;;;;;17.57;100.00;102012.03;4976876;28;20027;-87
2023/08/20 06:20:08;;;;;;;10.27;4.33;;;;;;;17.63;100.00;102011.09;4976781;28;20027;-86
2023/08/20 06:22:34;;;;;;;14.00;4.25;;;;;;;17.69;100.00;102019.22;4976702;28;20038;-87
2023/08/20 06:25:02;;;;;;;13.95;5.13;;;;;;;17.79;100.00;102013.16;4959506;28;20035;-87
2023/08/20 06:27:27;;;;;;;13.15;4.93;;;;;;;17.88;100.00;102011.75;4958951;28;20027;-88
2023/08/20 06:29:53;;;;;;;12.10;4.70;;;;;;;17.95;100.00;102019.94;4959396;28;20047;-88
2023/08/20 06:32:18;;;;;;;12.53;4.87;;;;;;;18.02;100.00;102019.78;4958315;28;20054;-87
2023/08/20 06:34:43;;;;;;;11.90;4.97;;;;;;;18.10;100.00;102024.09;4959451;28;20122;-87
2023/08/20 06:37:11;;;;;;;13.77;5.13;;;;;;;18.12;100.00;102021.97;4959267;28;20117;-87
2023/08/20 06:39:37;;;;;;;15.97;5.47;;;;;;;18.18;100.00;102021.00;4976531;28;20031;-87
2023/08/20 06:42:09;;;;;;;14.27;5.22;;;;;;;18.26;100.00;102028.88;4959329;28;20126;-89
2023/08/20 06:44:37;;;;;;;14.80;6.53;;;;;;;18.32;100.00;102025.19;4959749;28;20042;-93
2023/08/20 06:47:03;;;;;;;16.23;5.53;;;;;;;18.38;100.00;102020.63;4942420;28;20476;-88
2023/08/20 06:49:31;;;;;;;14.50;5.68;;;;;;;18.45;100.00;102026.84;4959248;28;20045;-87
2023/08/20 06:51:56;;;;;;;17.87;5.77;;;;;;;18.49;100.00;102027.22;4976361;28;20039;-87
2023/08/20 06:54:22;;;;;;;13.73;5.27;;;;;;;18.53;100.00;102031.16;4976797;28;20053;-87
2023/08/20 06:56:48;;;;;;;15.63;5.53;;;;;;;18.59;100.00;102024.72;4958397;28;20620;-88
2023/08/20 06:59:13;;;;;;;16.83;5.28;;;;;;;18.62;100.00;102026.16;4958777;28;20045;-88
2023/08/20 07:01:39;;;;;;;12.77;5.20;;;;;;;18.67;100.00;102032.56;4959184;28;20046;-87
2023/08/20 07:04:07;;;;;;;12.90;4.87;;;;;;;18.74;100.00;102032.44;4958813;28;20044;-87
2023/08/20 07:06:32;;;;;;;9.68;4.60;;;;;;;18.76;100.00;102035.78;4975720;28;20058;-87
2023/08/20 07:08:58;;;;;;;15.63;5.23;;;;;;;18.80;100.00;102038.91;4975616;28;20038;-86
2023/08/20 07:11:23;;;;;;;11.40;4.55;;;;;;;18.83;100.00;102043.91;4958592;28;20489;-86
2023/08/20 07:14:02;;;;;;;11.10;4.63;;;;;;;18.87;100.00;102040.47;4942525;28;20431;-87
2023/08/20 07:16:28;;;;;;;12.18;4.43;;;;;;;18.93;100.00;102044.16;4958337;28;20035;-87
2023/08/20 07:18:53;;;;;;;12.13;4.40;;;;;;;18.97;100.00;102047.25;4958429;28;20022;-87
2023/08/20 07:21:19;;;;;;;15.37;5.40;;;;;;;18.99;100.00;102045.94;4975554;28;20086;-86
2023/08/20 07:23:44;;;;;;;9.37;5.20;;;;;;;19.02;100.00;102039.94;4958145;28;20039;-87
2023/08/20 07:26:12;;;;;;;12.73;5.90;;;;;;;19.09;100.00;102045.31;4975118;28;20294;-87
2023/08/20 07:31:38;;;;;;;11.43;4.57;;;;;;;19.20;100.00;102038.09;4975902;28;20046;-91
2023/08/20 07:34:06;;;;;;;12.55;4.80;;;;;;;19.30;100.00;102041.06;4975354;28;20030;-85
2023/08/20 07:36:31;;;;;;;7.60;3.47;;;;;;;19.37;100.00;102043.66;4942264;28;20039;-88
2023/08/20 07:38:57;;;;;;;8.33;3.30;;;;;;;19.40;99.88;102041.25;4958022;28;20042;-86
2023/08/20 07:41:22;;;;;;;9.30;3.35;;;;;;;19.46;98.51;102042.19;4957637;28;20472;-87
2023/08/20 07:43:52;;;;;;;8.80;4.07;;;;;;;19.51;100.00;102039.53;4957612;28;20494;-87
2023/08/20 07:46:20;;;;;;;10.23;4.53;;;;;;;19.55;100.00;102043.47;4957300;28;20105;-88
2023/08/20 07:48:48;;;;;;;13.95;4.97;;;;;;;19.55;100.00;102051.72;4957716;28;20058;-87
2023/08/20 07:51:13;;;;;;;11.60;4.70;;;;;;;19.59;100.00;102052.03;4957684;28;20046;-87
2023/08/20 07:53:39;;;;;;;11.65;4.53;;;;;;;19.66;99.37;102054.66;4957940;28;20050;-86
2023/08/20 07:56:04;;;;;;;8.90;4.17;;;;;;;19.75;98.96;102059.53;4974535;28;20059;-87
2023/08/20 07:58:29;;;;;;;10.00;4.83;;;;;;;19.80;98.31;102067.91;4975216;28;20089;-87
2023/08/20 08:00:56;;;;;;;12.70;5.20;;;;;;;19.84;99.75;102064.66;4957638;28;20034;-87
2023/08/20 08:03:21;;;;;;;11.93;5.00;;;;;;;19.85;98.53;102066.31;4974994;28;20274;-87
2023/08/20 08:05:50;;;;;;;8.20;4.82;;;;;;;19.88;100.00;102058.38;4955961;28;20467;-88
2023/08/20 08:08:19;;;;;;;7.63;4.30;;;;;;;19.90;98.09;102060.88;4941758;28;20043;-87
2023/08/20 08:10:46;;;;;;;8.45;4.18;;;;;;;19.92;97.72;102061.50;4957633;28;20041;-89
2023/08/20 08:13:16;;;;;;;10.35;4.60;;;;;;;19.94;97.99;102062.88;4957311;28;20108;-88
2023/08/20 08:15:44;;;;;;;9.75;4.75;;;;;;;19.97;97.83;102067.94;4957319;28;20033;-89
2023/08/20 08:18:10;;;;;;;8.85;4.18;;;;;;;20.02;99.15;102069.09;4974848;28;20034;-89
2023/08/20 08:20:41;;;;;;;9.43;4.47;;;;;;;20.04;99.20;102073.25;4957675;28;20035;-89
2023/08/20 08:23:06;;;;;;;11.38;3.28;;;;;;;20.08;93.04;102071.69;4957735;28;20482;-89
2023/08/20 08:25:32;;;;;;;9.27;3.13;;;;;;;20.14;94.51;102070.69;4951569;29;20027;-88
2023/08/20 08:27:57;;;;;;;7.40;3.33;;;;;;;20.18;93.62;102072.94;4946995;28;20141;-88
2023/08/20 08:30:23;;;;;;;10.00;3.77;;;;;;;20.23;92.78;102065.59;4936822;28;20104;-89
2023/08/20 08:32:53;;;;;;;7.45;3.67;;;;;;;20.26;91.92;102067.84;4974284;28;20468;-89
2023/08/20 08:35:23;;;;;;;7.85;3.67;;;;;;;20.29;92.15;102072.03;4957119;28;20085;-89
2023/08/20 08:37:48;;;;;;;6.53;3.23;;;;;;;20.35;90.49;102072.94;4956724;28;20031;-88
2023/08/20 08:40:14;;;;;;;7.75;3.30;;;;;;;20.41;88.83;102074.69;4957391;28;20081;-88
2023/08/20 08:42:42;;;;;;;7.97;3.10;;;;;;;20.51;88.74;102072.91;4974415;28;20031;-89
2023/08/20 08:45:11;;;;;;;5.68;2.67;;;;;;;20.62;89.83;102075.81;4957495;28;20505;-90
2023/08/20 08:47:39;;;;;;;6.28;2.47;;;;;;;20.70;86.18;102077.34;4956161;28;20495;-90
2023/08/20 08:50:07;;;;;;;7.05;2.80;;;;;;;20.78;87.34;102072.22;4957193;28;20471;-89
2023/08/20 08:52:36;;;;;;;6.90;2.77;;;;;;;20.83;85.29;102080.56;4956835;28;20034;-89
2023/08/20 08:55:03;;;;;;;6.45;2.97;;;;;;;20.86;84.67;102070.97;4976203;28;20038;-89
2023/08/20 08:57:28;;;;;;;6.97;2.83;;;;;;;20.88;86.17;102079.81;4959048;28;20043;-88
2023/08/20 08:59:54;;;;;;;5.93;3.00;;;;;;;20.92;84.70;102075.47;4960433;28;20062;-90
2023/08/20 09:02:23;;;;;;;8.40;2.73;;;;;;;21.03;85.92;102077.22;4978121;28;20595;-90
2023/08/20 09:04:48;;;;;;;4.23;2.43;;;;;;;21.08;84.49;102083.91;4978171;28;20751;-90
2023/08/20 09:07:16;;;;;;;6.13;2.35;;;;;;;21.16;82.59;102080.72;4960738;28;20031;-89
2023/08/20 09:09:46;;;;;;;5.47;2.00;;;;;;;21.26;78.72;102085.50;4961559;28;20325;-89
2023/08/20 09:12:18;;;;;;;6.63;2.08;;;;;;;21.30;80.25;102084.72;4960749;28;20093;-90
2023/08/20 09:14:50;;;;;;;4.88;2.42;;;;;;;21.42;81.22;102081.00;4960433;28;20052;-90
2023/08/20 09:17:27;;;;;;;6.93;2.22;;;;;;;21.50;77.45;102088.84;4978195;28;20043;-90
2023/08/20 09:19:57;;;;;;;5.00;1.55;;;;;;;21.61;78.17;102087.06;4960947;28;20089;-90
2023/08/20 09:22:25;;;;;;;6.33;1.50;;;;;;;21.65;72.67;102091.78;4978224;28;20042;-90
2023/08/20 09:24:55;;;;;;;3.20;1.35;;;;;;;21.73;74.37;102083.06;4960858;28;20370;-89
2023/08/20 09:27:41;;;;;;;3.95;1.30;;;;;;;21.82;71.93;102079.78;4960064;28;20037;-90
2023/08/20 09:30:07;;;;;;;4.15;1.50;;;;;;;21.92;72.59;102084.59;4960859;28;20435;-90
2023/08/20 09:32:32;;;;;;;3.70;1.50;;;;;;;21.96;71.34;102083.81;4960219;28;20058;-90
2023/08/20 09:35:00;;;;;;;5.20;1.60;;;;;;;22.05;72.38;102084.16;4960578;28;20133;-90
2023/08/20 09:37:28;;;;;;;4.00;1.38;;;;;;;22.16;73.84;102082.31;4944921;28;20124;-90
2023/08/20 09:39:54;;;;;;;6.40;1.60;;;;;;;22.29;73.75;102084.63;4945059;28;20057;-90
2023/08/20 09:42:19;;;;;;;4.47;1.42;;;;;;;22.37;71.97;102088.88;4960219;28;20475;-90
2023/08/20 09:44:55;;;;;;;3.50;1.30;;;;;;;22.47;69.50;102085.34;4977740;28;20037;-90
2023/08/20 09:47:24;;;;;;;3.72;1.23;;;;;;;22.55;69.34;102093.16;4961323;28;20059;-90
2023/08/20 09:49:52;;;;;;;5.18;1.60;;;;;;;22.63;69.96;102086.28;4960071;28;20026;-90
2023/08/20 09:52:40;;;;;;;7.30;1.20;;;;;;;22.72;70.50;102084.66;4960310;28;20034;-90
2023/08/20 09:55:18;;;;;;;6.07;1.70;;;;;;;22.81;69.44;102080.31;4960331;28;20046;-90
2023/08/20 09:57:47;;;;;;;3.13;1.20;;;;;;;22.87;66.92;102084.78;4959689;28;20143;-91
2023/08/20 10:00:13;;;;;;;5.93;1.38;;;;;;;22.97;67.22;102083.16;4959714;28;20058;-90
2023/08/20 10:02:39;;;;;;;3.78;1.30;;;;;;;23.11;66.32;102090.72;4959941;28;20105;-90
2023/08/20 10:05:09;;;;;;;1.73;0.90;;;;;;;23.25;66.09;102087.44;4959783;28;20049;-90
2023/08/20 10:07:39;;;;;;;2.22;1.15;;;;;;;23.34;63.37;102082.22;4960043;28;20027;-90
2023/08/20 10:10:07;;;;;;;3.47;1.05;;;;;;;23.37;61.79;102081.66;4959603;28;20042;-90
2023/08/20 10:12:41;;;;;;;4.95;1.15;;;;;;;23.43;62.19;102086.13;4959276;28;20483;-90
2023/08/20 10:15:08;;;;;;;3.13;1.10;;;;;;;23.61;63.32;102085.63;4959334;28;20031;-91
2023/08/20 10:17:46;;;;;;;3.63;1.27;;;;;;;23.71;60.73;102086.72;4960257;28;20030;-90
2023/08/20 10:20:15;;;;;;;2.03;0.80;;;;;;;23.83;60.83;102087.31;4944315;28;20125;-90
2023/08/20 10:22:43;;;;;;;2.92;0.80;;;;;;;23.98;58.45;102079.03;4959454;28;20027;-90
2023/08/20 10:25:24;;;;;;;3.35;0.90;;;;;;;24.08;57.74;102078.22;4959702;28;20063;-89
2023/08/20 10:27:50;;;;;;;3.50;1.00;;;;;;;24.14;56.26;102081.84;4958875;28;20478;-89
2023/08/20 10:30:34;;;;;;;2.20;0.90;;;;;;;24.32;58.98;102084.03;4959626;28;20039;-89
2023/08/20 10:33:01;;;;;;;2.15;1.10;;;;;;;24.51;55.66;102075.13;4959649;28;20047;-89
2023/08/20 10:35:49;;;;;;;3.53;0.93;;;;;;;24.61;54.83;102077.06;4959093;28;20030;-88
2023/08/20 10:38:28;;;;;;;5.03;1.05;;;;;;;24.69;56.84;102082.06;4959241;28;20035;-89
2023/08/20 10:40:56;;;;;;;4.00;1.08;;;;;;;24.97;57.04;102079.75;4959423;28;20035;-89
2023/08/20 10:43:51;;;;;;;3.33;0.77;;;;;;;25.10;55.17;102079.16;4959137;28;20031;-88
2023/08/20 10:46:21;;;;;;;4.93;1.00;;;;;;;25.22;52.81;102081.59;4958805;28;20031;-88
2023/08/20 10:48:57;;;;;;;2.83;0.70;;;;;;;25.35;52.83;102075.44;4958337;28;20046;-84
2023/08/20 10:51:32;;;;;;;2.05;1.00;;;;;;;25.49;53.32;102078.41;4976388;28;20074;-83
2023/08/20 10:54:01;;;;;;;3.58;1.00;;;;;;;25.74;51.69;102082.97;4959001;28;20045;-87
2023/08/20 10:56:42;;;;;;;2.60;1.03;;;;;;;26.01;53.30;102073.34;4975513;28;20196;-88
2023/08/20 10:59:13;;;;;;;2.65;1.08;;;;;;;26.23;51.00;102077.59;4958865;28;20061;-89
2023/08/20 11:01:41;;;;;;;3.55;0.93;;;;;;;26.40;50.88;102079.97;4959413;28;20043;-88
2023/08/20 11:04:18;;;;;;;2.85;1.08;;;;;;;26.65;49.94;102080.81;4959059;28;20039;-88
2023/08/20 11:06:49;;;;;;;2.65;1.10;;;;;;;26.85;46.34;102077.81;4975987;28;20113;-88
2023/08/20 11:09:24;;;;;;;2.93;1.20;;;;;;;27.19;48.48;102074.06;4958608;28;20074;-89
2023/08/20 11:11:51;;;;;;;3.17;1.20;;;;;;;27.19;45.11;102076.84;4943426;28;20471;-88
2023/08/20 11:14:19;;;;;;;3.20;1.00;;;;;;;27.28;46.71;102077.00;4958425;28;20045;-88
2023/08/20 11:16:56;;;;;;;2.85;1.20;;;;;;;27.68;45.98;102076.75;4975596;28;20077;-89
2023/08/20 11:19:29;;;;;;;3.88;1.17;;;;;;;28.56;44.63;102078.91;4958672;28;20034;-89
2023/08/20 11:21:58;;;;;;;3.13;1.10;;;;;;;30.60;38.79;102075.31;4958951;28;20077;-89